createdAt,value
2023-04-28T00:01:09.665Z,1016.79
2023-04-28T00:16:10.113Z,1016.64
2023-04-28T00:31:10.743Z,1016.69
2023-04-28T00:46:15.343Z,1016.58
2023-04-28T01:01:16.372Z,1016.42
2023-04-28T01:16:16.467Z,1016.37
2023-04-28T01:31:16.679Z,1016.29
2023-04-28T01:46:16.958Z,1016.17
2023-04-28T02:01:17.197Z,1016.09
2023-04-28T02:16:17.158Z,1016.00
2023-04-28T02:31:17.490Z,1015.87
2023-04-28T02:46:17.585Z,1015.94
2023-04-28T03:01:17.772Z,1015.88
2023-04-28T03:16:17.929Z,1015.75
2023-04-28T03:31:18.044Z,1015.71
2023-04-28T03:46:18.861Z,1015.61
2023-04-28T04:01:18.927Z,1015.50
2023-04-28T04:16:19.219Z,1015.46
2023-04-28T04:31:19.735Z,1015.44
2023-04-28T04:46:20.048Z,1015.32
2023-04-28T05:01:20.224Z,1015.43
2023-04-28T05:16:20.433Z,1015.28
2023-04-28T05:31:20.639Z,1015.19
2023-04-28T05:46:30.182Z,1015.02
2023-04-28T06:01:26.470Z,1014.89
2023-04-28T06:16:26.457Z,1014.86
2023-04-28T06:31:26.608Z,1014.73
2023-04-28T06:46:26.940Z,1014.73
2023-04-28T07:01:27.234Z,1014.51
2023-04-28T07:16:27.420Z,1014.43
2023-04-28T07:31:27.369Z,1014.21
2023-04-28T07:46:28.012Z,1014.13
2023-04-28T08:01:28.654Z,1013.97
2023-04-28T08:16:29.120Z,1013.73
2023-04-28T08:31:29.938Z,1013.71
2023-04-28T08:46:29.994Z,1013.68
2023-04-28T09:01:30.236Z,1013.44
2023-04-28T09:16:30.118Z,1013.32
2023-04-28T09:31:30.764Z,1013.08
2023-04-28T09:46:31.599Z,1012.94
2023-04-28T10:01:31.689Z,1012.89
2023-04-28T10:16:32.173Z,1012.70
2023-04-28T10:31:32.651Z,1012.52
2023-04-28T10:46:33.064Z,1012.37
2023-04-28T11:01:33.237Z,1012.21
2023-04-28T11:16:33.074Z,1012.11
2023-04-28T11:31:33.268Z,1011.82
2023-04-28T11:46:34.571Z,1011.87
2023-04-28T12:01:34.865Z,1011.72
2023-04-28T12:16:34.813Z,1011.55
2023-04-28T12:31:35.190Z,1011.44
2023-04-28T12:46:36.425Z,1011.27
2023-04-28T13:01:36.270Z,1011.10
2023-04-28T13:16:36.696Z,1011.05
2023-04-28T13:31:36.852Z,1010.78
2023-04-28T13:46:37.040Z,1010.55
2023-04-28T14:01:37.516Z,1010.40
2023-04-28T14:16:37.555Z,1010.33
2023-04-28T14:31:37.695Z,1010.19
2023-04-28T14:46:38.193Z,1010.02
2023-04-28T15:01:39.176Z,1009.88
2023-04-28T15:16:39.292Z,1009.69
2023-04-28T15:31:39.638Z,1009.71
2023-04-28T15:46:39.818Z,1009.70
2023-04-28T16:01:39.907Z,1009.66
2023-04-28T16:16:40.123Z,1009.66
2023-04-28T16:31:40.341Z,1009.56
2023-04-28T16:46:40.266Z,1009.46
2023-04-28T17:01:40.369Z,1009.38
2023-04-28T17:16:40.403Z,1009.32
2023-04-28T17:31:40.717Z,1009.22
2023-04-28T17:46:41.269Z,1009.19
2023-04-28T18:01:41.608Z,1009.25
2023-04-28T18:16:41.972Z,1009.24
2023-04-28T18:31:43.045Z,1009.22
2023-04-28T18:46:43.147Z,1009.11
2023-04-28T19:01:43.031Z,1009.03
2023-04-28T19:16:43.421Z,1009.14
2023-04-28T19:31:43.855Z,1009.00
2023-04-28T19:46:46.277Z,1008.95
2023-04-28T20:01:47.387Z,1008.90
2023-04-28T20:16:47.668Z,1008.83
2023-04-28T20:31:48.421Z,1008.72
2023-04-28T20:46:49.224Z,1008.41
2023-04-28T21:01:49.462Z,1008.31
2023-04-28T21:16:49.506Z,1008.29
2023-04-28T21:31:49.924Z,1008.20
2023-04-28T21:46:50.031Z,1008.12
2023-04-28T22:01:50.124Z,1007.98
2023-04-28T22:16:50.355Z,1007.89
2023-04-28T22:31:50.396Z,1007.69
2023-04-28T22:46:50.675Z,1007.65
2023-04-28T23:01:50.790Z,1007.53
2023-04-28T23:16:50.846Z,1007.31
2023-04-28T23:31:51.106Z,1007.31
2023-04-28T23:46:51.164Z,1007.22
